sensor_id;sensor_type;location;lat;lon;timestamp;P1;durP1;ratioP1;P2;durP2;ratioP2
4597;SDS011;62772;48.646;8.906;2022-12-18T00:01:38;59.30;;;24.60;;
4597;SDS011;62772;48.646;8.906;2022-12-18T00:06:38;55.37;;;21.90;;
4597;SDS011;62772;48.646;8.906;2022-12-18T00:11:39;48.37;;;20.30;;
4597;SDS011;62772;48.646;8.906;2022-12-18T00:16:39;64.60;;;23.60;;
4597;SDS011;62772;48.646;8.906;2022-12-18T00:21:43;65.67;;;24.73;;
4597;SDS011;62772;48.646;8.906;2022-12-18T00:26:44;59.00;;;23.73;;
4597;SDS011;62772;48.646;8.906;2022-12-18T00:31:45;52.03;;;20.97;;
4597;SDS011;62772;48.646;8.906;2022-12-18T00:36:46;48.90;;;21.27;;
4597;SDS011;62772;48.646;8.906;2022-12-18T00:41:47;62.87;;;24.03;;
4597;SDS011;62772;48.646;8.906;2022-12-18T00:47:06;61.53;;;22.87;;
4597;SDS011;62772;48.646;8.906;2022-12-18T00:52:07;49.30;;;20.27;;
4597;SDS011;62772;48.646;8.906;2022-12-18T00:57:07;53.07;;;20.00;;
4597;SDS011;62772;48.646;8.906;2022-12-18T01:02:08;50.57;;;20.20;;
4597;SDS011;62772;48.646;8.906;2022-12-18T01:07:08;45.13;;;17.40;;
4597;SDS011;62772;48.646;8.906;2022-12-18T01:12:09;50.57;;;20.90;;
4597;SDS011;62772;48.646;8.906;2022-12-18T01:17:09;58.03;;;22.43;;
4597;SDS011;62772;48.646;8.906;2022-12-18T01:22:10;57.17;;;20.73;;
4597;SDS011;62772;48.646;8.906;2022-12-18T01:27:11;56.70;;;21.63;;
4597;SDS011;62772;48.646;8.906;2022-12-18T01:32:13;59.57;;;23.30;;
4597;SDS011;62772;48.646;8.906;2022-12-18T01:37:15;53.73;;;21.50;;
4597;SDS011;62772;48.646;8.906;2022-12-18T01:42:15;61.63;;;23.07;;
4597;SDS011;62772;48.646;8.906;2022-12-18T01:47:33;67.23;;;21.53;;
4597;SDS011;62772;48.646;8.906;2022-12-18T01:52:41;53.03;;;21.97;;
4597;SDS011;62772;48.646;8.906;2022-12-18T01:57:44;47.17;;;19.43;;
4597;SDS011;62772;48.646;8.906;2022-12-18T02:02:46;39.70;;;16.83;;
4597;SDS011;62772;48.646;8.906;2022-12-18T02:18:23;52.93;;;20.97;;
4597;SDS011;62772;48.646;8.906;2022-12-18T02:28:53;44.03;;;18.93;;
4597;SDS011;62772;48.646;8.906;2022-12-18T02:34:00;44.07;;;15.80;;
4597;SDS011;62772;48.646;8.906;2022-12-18T02:39:05;39.67;;;17.27;;
4597;SDS011;62772;48.646;8.906;2022-12-18T02:44:11;57.07;;;22.20;;
4597;SDS011;62772;48.646;8.906;2022-12-18T02:54:49;54.03;;;21.30;;
4597;SDS011;62772;48.646;8.906;2022-12-18T03:05:27;53.33;;;20.83;;
4597;SDS011;62772;48.646;8.906;2022-12-18T03:10:34;50.87;;;20.30;;
4597;SDS011;62772;48.646;8.906;2022-12-18T03:15:45;54.87;;;22.00;;
4597;SDS011;62772;48.646;8.906;2022-12-18T03:20:51;55.07;;;20.67;;
4597;SDS011;62772;48.646;8.906;2022-12-18T03:25:56;55.77;;;21.00;;
4597;SDS011;62772;48.646;8.906;2022-12-18T03:31:00;63.83;;;23.60;;
4597;SDS011;62772;48.646;8.906;2022-12-18T03:36:05;56.90;;;22.80;;
4597;SDS011;62772;48.646;8.906;2022-12-18T03:46:47;67.80;;;23.77;;
4597;SDS011;62772;48.646;8.906;2022-12-18T03:52:06;50.70;;;19.93;;
4597;SDS011;62772;48.646;8.906;2022-12-18T03:57:23;74.63;;;24.10;;
4597;SDS011;62772;48.646;8.906;2022-12-18T04:02:28;67.17;;;25.30;;
4597;SDS011;62772;48.646;8.906;2022-12-18T04:07:33;78.83;;;25.20;;
4597;SDS011;62772;48.646;8.906;2022-12-18T04:12:36;65.30;;;23.03;;
4597;SDS011;62772;48.646;8.906;2022-12-18T04:17:38;73.13;;;25.10;;
4597;SDS011;62772;48.646;8.906;2022-12-18T04:22:43;69.83;;;23.50;;
4597;SDS011;62772;48.646;8.906;2022-12-18T04:27:44;94.27;;;29.00;;
4597;SDS011;62772;48.646;8.906;2022-12-18T04:32:46;81.07;;;25.30;;
4597;SDS011;62772;48.646;8.906;2022-12-18T04:37:47;68.33;;;22.13;;
4597;SDS011;62772;48.646;8.906;2022-12-18T04:42:49;73.77;;;22.60;;
4597;SDS011;62772;48.646;8.906;2022-12-18T04:47:49;58.57;;;21.37;;
4597;SDS011;62772;48.646;8.906;2022-12-18T04:52:50;55.50;;;21.40;;
4597;SDS011;62772;48.646;8.906;2022-12-18T04:57:50;75.17;;;23.10;;
4597;SDS011;62772;48.646;8.906;2022-12-18T05:02:51;71.67;;;20.90;;
4597;SDS011;62772;48.646;8.906;2022-12-18T05:07:52;65.27;;;22.97;;
4597;SDS011;62772;48.646;8.906;2022-12-18T05:12:52;71.63;;;22.80;;
4597;SDS011;62772;48.646;8.906;2022-12-18T05:17:58;67.17;;;21.73;;
4597;SDS011;62772;48.646;8.906;2022-12-18T05:22:59;69.03;;;22.27;;
4597;SDS011;62772;48.646;8.906;2022-12-18T05:28:00;66.03;;;23.70;;
4597;SDS011;62772;48.646;8.906;2022-12-18T05:33:00;74.53;;;23.67;;
4597;SDS011;62772;48.646;8.906;2022-12-18T05:38:01;66.50;;;21.30;;
4597;SDS011;62772;48.646;8.906;2022-12-18T05:43:01;71.90;;;21.90;;
4597;SDS011;62772;48.646;8.906;2022-12-18T05:48:06;80.27;;;24.40;;
4597;SDS011;62772;48.646;8.906;2022-12-18T05:53:08;77.10;;;23.03;;
4597;SDS011;62772;48.646;8.906;2022-12-18T05:58:09;97.40;;;23.27;;
4597;SDS011;62772;48.646;8.906;2022-12-18T06:03:11;72.47;;;23.80;;
4597;SDS011;62772;48.646;8.906;2022-12-18T06:08:13;62.93;;;23.20;;
4597;SDS011;62772;48.646;8.906;2022-12-18T06:13:14;75.53;;;23.80;;
4597;SDS011;62772;48.646;8.906;2022-12-18T06:18:14;74.77;;;22.93;;
4597;SDS011;62772;48.646;8.906;2022-12-18T06:23:15;59.53;;;20.93;;
4597;SDS011;62772;48.646;8.906;2022-12-18T06:28:15;60.53;;;22.63;;
4597;SDS011;62772;48.646;8.906;2022-12-18T06:33:18;58.50;;;20.73;;
4597;SDS011;62772;48.646;8.906;2022-12-18T06:38:19;71.00;;;23.27;;
4597;SDS011;62772;48.646;8.906;2022-12-18T06:43:20;51.43;;;20.63;;
4597;SDS011;62772;48.646;8.906;2022-12-18T06:48:20;56.00;;;21.60;;
4597;SDS011;62772;48.646;8.906;2022-12-18T06:53:21;67.40;;;21.60;;
4597;SDS011;62772;48.646;8.906;2022-12-18T06:58:21;62.33;;;24.70;;
4597;SDS011;62772;48.646;8.906;2022-12-18T07:03:22;75.63;;;26.40;;
4597;SDS011;62772;48.646;8.906;2022-12-18T07:08:22;47.60;;;21.17;;
4597;SDS011;62772;48.646;8.906;2022-12-18T07:13:23;54.23;;;21.63;;
4597;SDS011;62772;48.646;8.906;2022-12-18T07:18:24;47.83;;;19.23;;
4597;SDS011;62772;48.646;8.906;2022-12-18T07:23:24;50.10;;;20.27;;
4597;SDS011;62772;48.646;8.906;2022-12-18T07:28:25;57.17;;;22.00;;
4597;SDS011;62772;48.646;8.906;2022-12-18T07:33:25;54.50;;;22.23;;
4597;SDS011;62772;48.646;8.906;2022-12-18T07:38:26;49.23;;;21.40;;
4597;SDS011;62772;48.646;8.906;2022-12-18T07:43:26;52.83;;;22.13;;
4597;SDS011;62772;48.646;8.906;2022-12-18T07:48:27;55.03;;;22.83;;
4597;SDS011;62772;48.646;8.906;2022-12-18T07:53:29;61.57;;;22.30;;
4597;SDS011;62772;48.646;8.906;2022-12-18T07:58:30;55.87;;;22.80;;
4597;SDS011;62772;48.646;8.906;2022-12-18T08:03:31;59.17;;;20.93;;
4597;SDS011;62772;48.646;8.906;2022-12-18T08:08:32;72.03;;;24.30;;
4597;SDS011;62772;48.646;8.906;2022-12-18T08:13:33;63.07;;;25.17;;
4597;SDS011;62772;48.646;8.906;2022-12-18T08:18:35;56.13;;;22.03;;
4597;SDS011;62772;48.646;8.906;2022-12-18T08:23:37;63.27;;;26.03;;
4597;SDS011;62772;48.646;8.906;2022-12-18T08:28:38;62.43;;;25.00;;
4597;SDS011;62772;48.646;8.906;2022-12-18T08:33:39;63.60;;;22.77;;
4597;SDS011;62772;48.646;8.906;2022-12-18T08:38:39;77.07;;;29.83;;
4597;SDS011;62772;48.646;8.906;2022-12-18T08:43:40;65.33;;;27.87;;
4597;SDS011;62772;48.646;8.906;2022-12-18T08:49:00;61.30;;;23.33;;
4597;SDS011;62772;48.646;8.906;2022-12-18T08:54:01;65.73;;;25.67;;
4597;SDS011;62772;48.646;8.906;2022-12-18T08:59:01;55.60;;;24.00;;
4597;SDS011;62772;48.646;8.906;2022-12-18T09:04:02;54.07;;;23.07;;
4597;SDS011;62772;48.646;8.906;2022-12-18T09:09:03;66.00;;;23.77;;
4597;SDS011;62772;48.646;8.906;2022-12-18T09:14:05;59.63;;;25.70;;
4597;SDS011;62772;48.646;8.906;2022-12-18T09:19:05;56.20;;;23.10;;
4597;SDS011;62772;48.646;8.906;2022-12-18T09:24:06;58.90;;;22.03;;
4597;SDS011;62772;48.646;8.906;2022-12-18T09:29:11;66.60;;;29.40;;
4597;SDS011;62772;48.646;8.906;2022-12-18T09:34:12;59.63;;;23.93;;
4597;SDS011;62772;48.646;8.906;2022-12-18T09:39:13;55.67;;;21.70;;
4597;SDS011;62772;48.646;8.906;2022-12-18T09:49:34;50.30;;;20.63;;
4597;SDS011;62772;48.646;8.906;2022-12-18T09:54:38;61.80;;;23.60;;
4597;SDS011;62772;48.646;8.906;2022-12-18T09:59:40;55.17;;;22.57;;
4597;SDS011;62772;48.646;8.906;2022-12-18T10:04:49;56.17;;;23.17;;
4597;SDS011;62772;48.646;8.906;2022-12-18T10:10:46;63.83;;;22.53;;
4597;SDS011;62772;48.646;8.906;2022-12-18T10:15:25;51.63;;;20.60;;
4597;SDS011;62772;48.646;8.906;2022-12-18T10:20:49;58.87;;;22.87;;
4597;SDS011;62772;48.646;8.906;2022-12-18T10:31:27;57.07;;;22.60;;
4597;SDS011;62772;48.646;8.906;2022-12-18T10:36:26;54.80;;;21.93;;
4597;SDS011;62772;48.646;8.906;2022-12-18T10:41:27;61.33;;;23.17;;
4597;SDS011;62772;48.646;8.906;2022-12-18T10:46:27;63.00;;;22.70;;
4597;SDS011;62772;48.646;8.906;2022-12-18T10:51:29;56.57;;;24.07;;
4597;SDS011;62772;48.646;8.906;2022-12-18T10:56:34;59.10;;;24.00;;
4597;SDS011;62772;48.646;8.906;2022-12-18T11:06:52;64.57;;;24.50;;
4597;SDS011;62772;48.646;8.906;2022-12-18T11:12:02;60.87;;;25.03;;
4597;SDS011;62772;48.646;8.906;2022-12-18T11:17:33;66.10;;;24.17;;
4597;SDS011;62772;48.646;8.906;2022-12-18T11:22:36;56.47;;;24.57;;
4597;SDS011;62772;48.646;8.906;2022-12-18T11:27:38;71.13;;;29.70;;
4597;SDS011;62772;48.646;8.906;2022-12-18T11:32:50;73.23;;;29.63;;
4597;SDS011;62772;48.646;8.906;2022-12-18T11:38:09;69.40;;;29.80;;
4597;SDS011;62772;48.646;8.906;2022-12-18T11:43:17;70.67;;;26.53;;
4597;SDS011;62772;48.646;8.906;2022-12-18T11:48:25;76.83;;;29.53;;
4597;SDS011;62772;48.646;8.906;2022-12-18T11:53:29;68.17;;;25.90;;
4597;SDS011;62772;48.646;8.906;2022-12-18T12:04:27;80.20;;;28.73;;
4597;SDS011;62772;48.646;8.906;2022-12-18T12:09:42;65.97;;;26.13;;
4597;SDS011;62772;48.646;8.906;2022-12-18T12:30:30;84.33;;;29.87;;
4597;SDS011;62772;48.646;8.906;2022-12-18T12:41:05;86.37;;;31.90;;
4597;SDS011;62772;48.646;8.906;2022-12-18T12:46:29;79.70;;;30.33;;
4597;SDS011;62772;48.646;8.906;2022-12-18T12:51:35;77.40;;;32.17;;
4597;SDS011;62772;48.646;8.906;2022-12-18T12:56:42;76.07;;;29.23;;
4597;SDS011;62772;48.646;8.906;2022-12-18T13:02:33;79.97;;;31.20;;
4597;SDS011;62772;48.646;8.906;2022-12-18T13:12:28;82.07;;;32.00;;
4597;SDS011;62772;48.646;8.906;2022-12-18T13:17:48;79.43;;;32.50;;
4597;SDS011;62772;48.646;8.906;2022-12-18T13:22:48;85.60;;;32.67;;
4597;SDS011;62772;48.646;8.906;2022-12-18T13:28:00;84.63;;;31.20;;
4597;SDS011;62772;48.646;8.906;2022-12-18T13:43:41;89.50;;;35.10;;
4597;SDS011;62772;48.646;8.906;2022-12-18T13:48:48;82.90;;;31.70;;
4597;SDS011;62772;48.646;8.906;2022-12-18T13:53:53;93.33;;;32.63;;
4597;SDS011;62772;48.646;8.906;2022-12-18T14:09:25;87.70;;;35.33;;
4597;SDS011;62772;48.646;8.906;2022-12-18T14:14:28;84.40;;;34.73;;
4597;SDS011;62772;48.646;8.906;2022-12-18T14:19:29;61.40;;;25.23;;
4597;SDS011;62772;48.646;8.906;2022-12-18T14:24:29;62.70;;;26.53;;
4597;SDS011;62772;48.646;8.906;2022-12-18T14:29:30;95.87;;;33.20;;
4597;SDS011;62772;48.646;8.906;2022-12-18T14:34:31;111.80;;;45.60;;
4597;SDS011;62772;48.646;8.906;2022-12-18T14:39:31;111.27;;;43.63;;
4597;SDS011;62772;48.646;8.906;2022-12-18T14:44:32;100.40;;;43.70;;
4597;SDS011;62772;48.646;8.906;2022-12-18T14:49:33;100.90;;;43.73;;
4597;SDS011;62772;48.646;8.906;2022-12-18T14:54:34;91.87;;;39.53;;
4597;SDS011;62772;48.646;8.906;2022-12-18T14:59:37;87.30;;;37.27;;
4597;SDS011;62772;48.646;8.906;2022-12-18T15:05:00;102.14;;;40.83;;
4597;SDS011;62772;48.646;8.906;2022-12-18T15:20:39;96.83;;;40.97;;
4597;SDS011;62772;48.646;8.906;2022-12-18T15:25:53;98.03;;;38.83;;
4597;SDS011;62772;48.646;8.906;2022-12-18T15:36:03;87.17;;;38.80;;
4597;SDS011;62772;48.646;8.906;2022-12-18T15:41:05;95.77;;;39.83;;
4597;SDS011;62772;48.646;8.906;2022-12-18T15:56:21;76.93;;;32.50;;
4597;SDS011;62772;48.646;8.906;2022-12-18T16:01:41;82.93;;;33.60;;
4597;SDS011;62772;48.646;8.906;2022-12-18T16:06:43;79.50;;;34.90;;
4597;SDS011;62772;48.646;8.906;2022-12-18T16:11:44;84.83;;;35.30;;
4597;SDS011;62772;48.646;8.906;2022-12-18T16:16:48;76.23;;;33.50;;
4597;SDS011;62772;48.646;8.906;2022-12-18T16:21:50;77.70;;;32.20;;
4597;SDS011;62772;48.646;8.906;2022-12-18T16:26:53;73.37;;;29.10;;
4597;SDS011;62772;48.646;8.906;2022-12-18T16:31:55;73.90;;;30.60;;
4597;SDS011;62772;48.646;8.906;2022-12-18T16:37:01;67.30;;;29.83;;
4597;SDS011;62772;48.646;8.906;2022-12-18T16:42:04;68.50;;;29.13;;
4597;SDS011;62772;48.646;8.906;2022-12-18T16:47:06;71.63;;;30.30;;
4597;SDS011;62772;48.646;8.906;2022-12-18T16:52:07;85.17;;;35.80;;
4597;SDS011;62772;48.646;8.906;2022-12-18T16:57:08;76.03;;;34.80;;
4597;SDS011;62772;48.646;8.906;2022-12-18T17:02:13;87.27;;;35.37;;
4597;SDS011;62772;48.646;8.906;2022-12-18T17:07:15;83.27;;;36.40;;
4597;SDS011;62772;48.646;8.906;2022-12-18T17:12:16;87.47;;;36.97;;
4597;SDS011;62772;48.646;8.906;2022-12-18T17:17:17;78.87;;;35.43;;
4597;SDS011;62772;48.646;8.906;2022-12-18T17:22:18;93.30;;;40.93;;
4597;SDS011;62772;48.646;8.906;2022-12-18T17:27:19;92.30;;;36.57;;
4597;SDS011;62772;48.646;8.906;2022-12-18T17:32:20;99.17;;;40.10;;
4597;SDS011;62772;48.646;8.906;2022-12-18T17:37:20;93.17;;;40.30;;
4597;SDS011;62772;48.646;8.906;2022-12-18T17:42:21;98.60;;;37.90;;
4597;SDS011;62772;48.646;8.906;2022-12-18T17:47:21;101.13;;;38.17;;
4597;SDS011;62772;48.646;8.906;2022-12-18T17:52:22;98.63;;;39.90;;
4597;SDS011;62772;48.646;8.906;2022-12-18T17:57:23;82.63;;;36.63;;
4597;SDS011;62772;48.646;8.906;2022-12-18T18:02:23;88.30;;;36.00;;
4597;SDS011;62772;48.646;8.906;2022-12-18T18:07:24;90.60;;;36.33;;
4597;SDS011;62772;48.646;8.906;2022-12-18T18:12:24;87.40;;;35.90;;
4597;SDS011;62772;48.646;8.906;2022-12-18T18:17:43;87.83;;;34.63;;
4597;SDS011;62772;48.646;8.906;2022-12-18T18:22:44;105.73;;;42.27;;
4597;SDS011;62772;48.646;8.906;2022-12-18T18:27:45;100.33;;;39.67;;
4597;SDS011;62772;48.646;8.906;2022-12-18T18:32:45;91.50;;;37.23;;
4597;SDS011;62772;48.646;8.906;2022-12-18T18:37:49;92.10;;;37.00;;
4597;SDS011;62772;48.646;8.906;2022-12-18T18:42:49;142.67;;;51.80;;
4597;SDS011;62772;48.646;8.906;2022-12-18T18:47:50;82.30;;;33.80;;
4597;SDS011;62772;48.646;8.906;2022-12-18T18:52:51;83.90;;;33.97;;
4597;SDS011;62772;48.646;8.906;2022-12-18T18:57:52;100.10;;;38.90;;
4597;SDS011;62772;48.646;8.906;2022-12-18T19:02:53;108.07;;;41.33;;
4597;SDS011;62772;48.646;8.906;2022-12-18T19:07:54;101.80;;;39.13;;
4597;SDS011;62772;48.646;8.906;2022-12-18T19:12:54;95.17;;;38.00;;
4597;SDS011;62772;48.646;8.906;2022-12-18T19:18:13;90.73;;;35.57;;
4597;SDS011;62772;48.646;8.906;2022-12-18T19:23:14;94.60;;;38.73;;
4597;SDS011;62772;48.646;8.906;2022-12-18T19:28:15;100.37;;;39.73;;
4597;SDS011;62772;48.646;8.906;2022-12-18T19:33:15;112.17;;;42.93;;
4597;SDS011;62772;48.646;8.906;2022-12-18T19:38:16;96.40;;;37.80;;
4597;SDS011;62772;48.646;8.906;2022-12-18T19:43:17;90.90;;;36.27;;
4597;SDS011;62772;48.646;8.906;2022-12-18T19:48:17;81.83;;;33.73;;
4597;SDS011;62772;48.646;8.906;2022-12-18T19:53:18;93.37;;;36.63;;
4597;SDS011;62772;48.646;8.906;2022-12-18T19:58:19;80.43;;;35.47;;
4597;SDS011;62772;48.646;8.906;2022-12-18T20:03:19;113.57;;;43.70;;
4597;SDS011;62772;48.646;8.906;2022-12-18T20:08:20;88.70;;;35.77;;
4597;SDS011;62772;48.646;8.906;2022-12-18T20:13:20;97.43;;;36.47;;
4597;SDS011;62772;48.646;8.906;2022-12-18T20:18:21;91.33;;;33.10;;
4597;SDS011;62772;48.646;8.906;2022-12-18T20:23:21;96.27;;;37.73;;
4597;SDS011;62772;48.646;8.906;2022-12-18T20:28:22;88.57;;;35.23;;
4597;SDS011;62772;48.646;8.906;2022-12-18T20:33:24;86.40;;;35.93;;
4597;SDS011;62772;48.646;8.906;2022-12-18T20:38:24;92.17;;;34.80;;
4597;SDS011;62772;48.646;8.906;2022-12-18T20:43:25;89.23;;;32.40;;
4597;SDS011;62772;48.646;8.906;2022-12-18T20:48:26;82.73;;;34.87;;
4597;SDS011;62772;48.646;8.906;2022-12-18T20:53:27;95.87;;;37.60;;
4597;SDS011;62772;48.646;8.906;2022-12-18T20:58:28;93.17;;;37.33;;
4597;SDS011;62772;48.646;8.906;2022-12-18T21:03:28;93.80;;;35.23;;
4597;SDS011;62772;48.646;8.906;2022-12-18T21:08:29;102.47;;;35.73;;
4597;SDS011;62772;48.646;8.906;2022-12-18T21:13:29;89.30;;;35.03;;
4597;SDS011;62772;48.646;8.906;2022-12-18T21:18:30;91.17;;;34.40;;
4597;SDS011;62772;48.646;8.906;2022-12-18T21:23:30;82.30;;;34.60;;
4597;SDS011;62772;48.646;8.906;2022-12-18T21:28:31;88.37;;;36.07;;
4597;SDS011;62772;48.646;8.906;2022-12-18T21:33:32;96.47;;;36.20;;
4597;SDS011;62772;48.646;8.906;2022-12-18T21:38:33;78.07;;;34.10;;
4597;SDS011;62772;48.646;8.906;2022-12-18T21:43:36;90.10;;;34.90;;
4597;SDS011;62772;48.646;8.906;2022-12-18T21:48:55;86.47;;;33.57;;
4597;SDS011;62772;48.646;8.906;2022-12-18T21:53:56;88.47;;;35.43;;
4597;SDS011;62772;48.646;8.906;2022-12-18T21:58:57;83.80;;;34.73;;
4597;SDS011;62772;48.646;8.906;2022-12-18T22:03:57;89.50;;;33.40;;
4597;SDS011;62772;48.646;8.906;2022-12-18T22:08:58;90.27;;;34.27;;
4597;SDS011;62772;48.646;8.906;2022-12-18T22:13:58;84.57;;;36.30;;
4597;SDS011;62772;48.646;8.906;2022-12-18T22:18:59;87.13;;;34.00;;
4597;SDS011;62772;48.646;8.906;2022-12-18T22:24:00;76.33;;;32.87;;
4597;SDS011;62772;48.646;8.906;2022-12-18T22:29:02;93.40;;;35.47;;
4597;SDS011;62772;48.646;8.906;2022-12-18T22:34:22;85.03;;;34.77;;
4597;SDS011;62772;48.646;8.906;2022-12-18T22:39:24;84.27;;;34.40;;
4597;SDS011;62772;48.646;8.906;2022-12-18T22:44:26;88.60;;;33.80;;
4597;SDS011;62772;48.646;8.906;2022-12-18T22:49:26;81.30;;;33.37;;
4597;SDS011;62772;48.646;8.906;2022-12-18T22:54:27;100.57;;;35.57;;
4597;SDS011;62772;48.646;8.906;2022-12-18T22:59:28;92.97;;;34.83;;
4597;SDS011;62772;48.646;8.906;2022-12-18T23:04:28;92.47;;;35.27;;
4597;SDS011;62772;48.646;8.906;2022-12-18T23:09:29;81.53;;;34.07;;
4597;SDS011;62772;48.646;8.906;2022-12-18T23:14:30;88.60;;;33.87;;
4597;SDS011;62772;48.646;8.906;2022-12-18T23:19:30;80.63;;;32.33;;
4597;SDS011;62772;48.646;8.906;2022-12-18T23:24:31;84.00;;;34.30;;
4597;SDS011;62772;48.646;8.906;2022-12-18T23:29:31;84.27;;;33.20;;
4597;SDS011;62772;48.646;8.906;2022-12-18T23:34:32;84.13;;;32.10;;
4597;SDS011;62772;48.646;8.906;2022-12-18T23:39:32;84.47;;;31.10;;
4597;SDS011;62772;48.646;8.906;2022-12-18T23:44:33;81.73;;;32.00;;
4597;SDS011;62772;48.646;8.906;2022-12-18T23:49:33;74.80;;;31.33;;
4597;SDS011;62772;48.646;8.906;2022-12-18T23:54:34;69.57;;;28.83;;
4597;SDS011;62772;48.646;8.906;2022-12-18T23:59:34;79.80;;;31.87;;
